Time;durP1;ratioP1;P1;durP2;ratioP2;P2;SDS_P1;SDS_P2;PMS_P1;PMS_P2;Temp;Humidity;BMP_temperature;BMP_pressure;BME280_temperature;BME280_humidity;BME280_pressure;Samples;Min_cycle;Max_cycle;Signal;HPM_P1;HPM_P2
2023/01/24 00:02:22;;;;;;;12.13;7.03;;;;;;;;;;5053550;28;20179;-58
2023/01/24 00:04:48;;;;;;;14.77;9.87;;;;;;;;;;5053453;28;20021;-58
2023/01/24 00:07:14;;;;;;;11.70;8.23;;;;;;;;;;5053357;28;20025;-57
2023/01/24 00:09:40;;;;;;;8.57;6.97;;;;;;;;;;5052563;28;20371;-58
2023/01/24 00:12:06;;;;;;;9.60;8.00;;;;;;;;;;5053094;28;20029;-58
2023/01/24 00:14:32;;;;;;;10.00;8.23;;;;;;;;;;5053712;28;20033;-58
2023/01/24 00:16:58;;;;;;;9.17;8.17;;;;;;;;;;5053100;28;20052;-59
2023/01/24 00:19:24;;;;;;;16.40;9.20;;;;;;;;;;5053059;28;20434;-58
2023/01/24 00:21:50;;;;;;;12.47;10.90;;;;;;;;;;5053807;28;20395;-58
2023/01/24 00:24:16;;;;;;;16.47;9.57;;;;;;;;;;5053918;28;20351;-58
2023/01/24 00:26:42;;;;;;;8.60;7.70;;;;;;;;;;5053582;28;20021;-58
2023/01/24 00:29:07;;;;;;;8.03;7.23;;;;;;;;;;5053169;28;20024;-58
2023/01/24 00:31:33;;;;;;;12.47;8.13;;;;;;;;;;5053635;28;20040;-59
2023/01/24 00:34:00;;;;;;;10.67;7.37;;;;;;;;;;5053202;28;20025;-58
2023/01/24 00:36:26;;;;;;;9.97;8.30;;;;;;;;;;5053158;28;20036;-58
2023/01/24 00:38:54;;;;;;;13.83;9.43;;;;;;;;;;5052843;28;20029;-58
2023/01/24 00:41:20;;;;;;;10.47;9.00;;;;;;;;;;5053105;28;20120;-57
2023/01/24 00:43:46;;;;;;;9.73;7.83;;;;;;;;;;5056821;28;20036;-58
2023/01/24 00:46:12;;;;;;;11.33;7.83;;;;;;;;;;5057569;28;20401;-57
2023/01/24 00:48:38;;;;;;;12.20;7.53;;;;;;;;;;5056628;28;20075;-58
2023/01/24 00:51:04;;;;;;;10.40;8.10;;;;;;;;;;5057336;28;20032;-58
2023/01/24 00:53:30;;;;;;;13.30;9.40;;;;;;;;;;5056858;28;20072;-58
2023/01/24 00:55:56;;;;;;;7.87;6.63;;;;;;;;;;5056889;28;20052;-58
2023/01/24 00:58:22;;;;;;;10.90;8.10;;;;;;;;;;5056746;28;20025;-58
2023/01/24 01:00:48;;;;;;;12.40;6.87;;;;;;;;;;5056511;28;20036;-58
2023/01/24 01:03:15;;;;;;;13.50;9.33;;;;;;;;;;5056448;28;20037;-58
2023/01/24 01:05:42;;;;;;;13.80;9.50;;;;;;;;;;5056987;28;20369;-58
2023/01/24 01:08:08;;;;;;;11.37;7.03;;;;;;;;;;5056280;28;20079;-58
2023/01/24 01:10:34;;;;;;;11.27;8.47;;;;;;;;;;5056468;28;20033;-58
2023/01/24 01:13:00;;;;;;;12.47;6.83;;;;;;;;;;5056210;28;20060;-58
2023/01/24 01:15:26;;;;;;;11.37;8.20;;;;;;;;;;5056823;28;20468;-58
2023/01/24 01:17:52;;;;;;;10.37;8.53;;;;;;;;;;5056434;28;20021;-58
2023/01/24 01:20:18;;;;;;;10.40;7.93;;;;;;;;;;5056064;28;20179;-58
2023/01/24 01:22:44;;;;;;;9.47;6.33;;;;;;;;;;5056161;28;20097;-59
2023/01/24 01:25:10;;;;;;;10.63;7.73;;;;;;;;;;5056054;28;20021;-57
2023/01/24 01:27:36;;;;;;;9.73;8.13;;;;;;;;;;5056707;28;20108;-58
2023/01/24 01:30:02;;;;;;;12.07;10.57;;;;;;;;;;5055813;28;20025;-58
2023/01/24 01:32:28;;;;;;;8.73;7.87;;;;;;;;;;5056591;28;20032;-58
2023/01/24 01:34:54;;;;;;;8.57;7.57;;;;;;;;;;5056105;28;20447;-58
2023/01/24 01:37:20;;;;;;;14.70;8.00;;;;;;;;;;5055932;28;20079;-58
2023/01/24 01:39:46;;;;;;;10.33;7.73;;;;;;;;;;5055757;28;20021;-58
2023/01/24 01:42:14;;;;;;;12.57;8.13;;;;;;;;;;5055967;28;20025;-58
2023/01/24 01:44:41;;;;;;;8.83;6.67;;;;;;;;;;5056188;28;20029;-58
2023/01/24 01:47:22;;;;;;;12.57;9.03;;;;;;;;;;5056040;28;20371;-58
2023/01/24 01:49:59;;;;;;;12.27;9.13;;;;;;;;;;5055380;28;20036;-58
2023/01/24 01:52:25;;;;;;;7.37;5.63;;;;;;;;;;5055503;28;20029;-58
2023/01/24 01:54:53;;;;;;;12.57;9.20;;;;;;;;;;5055123;28;20029;-58
2023/01/24 01:57:27;;;;;;;9.17;7.83;;;;;;;;;;5055271;28;20052;-58
2023/01/24 01:59:56;;;;;;;11.53;7.70;;;;;;;;;;5056135;28;20032;-58
2023/01/24 02:02:22;;;;;;;12.93;10.53;;;;;;;;;;5054772;28;20060;-58
2023/01/24 02:04:52;;;;;;;11.20;9.23;;;;;;;;;;5055556;28;20143;-59
2023/01/24 02:07:21;;;;;;;14.90;7.97;;;;;;;;;;5055049;28;20025;-58
2023/01/24 02:09:49;;;;;;;11.97;9.73;;;;;;;;;;5055230;28;20025;-58
2023/01/24 02:12:48;;;;;;;10.60;8.47;;;;;;;;;;5055074;28;20056;-58
2023/01/24 02:18:03;;;;;;;12.93;9.63;;;;;;;;;;5055389;28;20067;-58
2023/01/24 02:20:45;;;;;;;7.17;6.43;;;;;;;;;;5054480;28;20094;-58
2023/01/24 02:23:17;;;;;;;10.20;9.17;;;;;;;;;;5055089;28;20370;-58
2023/01/24 02:25:49;;;;;;;11.33;8.27;;;;;;;;;;5054921;28;20479;-58
2023/01/24 02:28:15;;;;;;;11.70;8.20;;;;;;;;;;5054692;28;20110;-58
2023/01/24 02:30:41;;;;;;;14.20;8.80;;;;;;;;;;5054914;28;20352;-58
2023/01/24 02:33:15;;;;;;;10.97;9.33;;;;;;;;;;5055160;28;20032;-58
2023/01/24 02:35:41;;;;;;;10.67;7.43;;;;;;;;;;5054679;28;20025;-58
2023/01/24 02:38:13;;;;;;;11.50;9.10;;;;;;;;;;5054574;28;20031;-58
2023/01/24 02:40:40;;;;;;;12.97;9.23;;;;;;;;;;5055361;28;20032;-57
2023/01/24 02:43:07;;;;;;;10.70;8.27;;;;;;;;;;5054521;28;20053;-58
2023/01/24 02:45:35;;;;;;;9.93;8.17;;;;;;;;;;5055051;28;20057;-57
2023/01/24 02:48:01;;;;;;;11.90;9.47;;;;;;;;;;5055256;28;20108;-58
2023/01/24 02:50:28;;;;;;;16.90;7.90;;;;;;;;;;5054365;28;20111;-56
2023/01/24 02:58:05;;;;;;;12.67;8.97;;;;;;;;;;5054415;28;20072;-58
2023/01/24 02:58:25;;;;;;;10.03;8.47;;;;;;;;;;5053966;28;20080;-58
2023/01/24 03:00:51;;;;;;;12.30;8.50;;;;;;;;;;5053515;28;20029;-58
2023/01/24 03:03:17;;;;;;;8.53;7.70;;;;;;;;;;5054834;28;20383;-57
2023/01/24 03:06:03;;;;;;;10.40;8.37;;;;;;;;;;5053814;28;20371;-57
2023/01/24 03:08:30;;;;;;;9.60;7.60;;;;;;;;;;5053911;28;20068;-58
2023/01/24 03:10:57;;;;;;;7.67;6.90;;;;;;;;;;5054075;28;20128;-57
2023/01/24 03:35:21;;;;;;;11.83;10.53;;;;;;;;;;5054112;28;20036;-59
2023/01/24 03:40:31;;;;;;;14.50;9.83;;;;;;;;;;5053811;28;20110;-58
2023/01/24 03:42:58;;;;;;;12.37;7.90;;;;;;;;;;5053682;28;20025;-58
2023/01/24 03:45:26;;;;;;;9.20;8.27;;;;;;;;;;5053677;28;20459;-58
2023/01/24 03:47:57;;;;;;;7.47;6.63;;;;;;;;;;5053592;28;20025;-58
2023/01/24 03:53:07;;;;;;;8.47;6.03;;;;;;;;;;5053618;28;20048;-58
2023/01/24 03:55:33;;;;;;;10.37;8.73;;;;;;;;;;5053653;28;20029;-58
2023/01/24 03:57:59;;;;;;;11.83;10.13;;;;;;;;;;5053591;28;20093;-58
2023/01/24 04:00:25;;;;;;;14.70;8.83;;;;;;;;;;5053162;28;20486;-58
2023/01/24 04:02:51;;;;;;;10.03;8.87;;;;;;;;;;5053977;28;20045;-58
2023/01/24 04:05:17;;;;;;;9.53;8.57;;;;;;;;;;5053295;28;20422;-58
2023/01/24 04:07:43;;;;;;;7.47;6.03;;;;;;;;;;5053308;28;20052;-58
2023/01/24 04:10:10;;;;;;;8.37;7.10;;;;;;;;;;5053876;28;20037;-58
2023/01/24 04:12:36;;;;;;;10.53;8.97;;;;;;;;;;5053366;28;20033;-58
2023/01/24 04:15:02;;;;;;;15.13;7.93;;;;;;;;;;5052752;28;20044;-58
2023/01/24 04:17:28;;;;;;;14.07;9.37;;;;;;;;;;5054775;28;20053;-58
2023/01/24 04:19:53;;;;;;;9.50;7.70;;;;;;;;;;5057259;28;20021;-58
2023/01/24 04:22:19;;;;;;;11.03;7.73;;;;;;;;;;5056879;28;20028;-58
2023/01/24 04:24:45;;;;;;;10.40;7.30;;;;;;;;;;5057759;28;20025;-58
2023/01/24 04:27:12;;;;;;;15.03;9.03;;;;;;;;;;5057123;28;20021;-58
2023/01/24 04:29:38;;;;;;;10.80;8.70;;;;;;;;;;5057079;28;20100;-58
2023/01/24 04:32:04;;;;;;;13.57;9.43;;;;;;;;;;5057569;28;20501;-58
2023/01/24 04:34:30;;;;;;;9.73;8.17;;;;;;;;;;5057662;28;20029;-58
2023/01/24 04:36:56;;;;;;;10.80;6.93;;;;;;;;;;5057019;28;20029;-58
2023/01/24 04:39:22;;;;;;;10.20;9.07;;;;;;;;;;5056931;28;20021;-58
2023/01/24 04:41:48;;;;;;;13.30;7.87;;;;;;;;;;5057237;28;20033;-58
2023/01/24 04:44:14;;;;;;;11.73;8.47;;;;;;;;;;5057451;28;20347;-58
2023/01/24 04:46:40;;;;;;;10.37;6.80;;;;;;;;;;5056826;28;20075;-58
2023/01/24 04:49:06;;;;;;;11.33;8.40;;;;;;;;;;5056839;28;20063;-58
2023/01/24 04:51:31;;;;;;;15.00;9.90;;;;;;;;;;5057003;28;20086;-58
2023/01/24 04:53:57;;;;;;;13.03;11.13;;;;;;;;;;5056714;28;20087;-58
2023/01/24 04:56:23;;;;;;;10.97;8.63;;;;;;;;;;5056480;28;20021;-56
2023/01/24 04:58:49;;;;;;;12.13;7.80;;;;;;;;;;5057084;28;20028;-58
2023/01/24 05:01:15;;;;;;;9.73;8.73;;;;;;;;;;5056361;28;20514;-58
2023/01/24 05:03:41;;;;;;;10.43;8.67;;;;;;;;;;5054930;28;20021;-58
2023/01/24 05:06:07;;;;;;;11.63;8.90;;;;;;;;;;5056844;28;20056;-58
2023/01/24 05:08:33;;;;;;;12.67;9.63;;;;;;;;;;5056443;28;20032;-58
2023/01/24 05:11:03;;;;;;;11.63;9.53;;;;;;;;;;5056336;28;20115;-58
2023/01/24 05:13:29;;;;;;;8.00;7.20;;;;;;;;;;5056333;28;20025;-58
2023/01/24 05:15:55;;;;;;;10.57;8.90;;;;;;;;;;5056381;28;20021;-58
2023/01/24 05:18:21;;;;;;;11.33;8.90;;;;;;;;;;5056740;28;20036;-58
2023/01/24 05:20:47;;;;;;;14.07;9.47;;;;;;;;;;5056129;28;20036;-58
2023/01/24 05:23:12;;;;;;;10.77;9.63;;;;;;;;;;5056706;28;20025;-58
2023/01/24 05:25:38;;;;;;;14.17;12.27;;;;;;;;;;5056753;28;20052;-57
2023/01/24 05:28:05;;;;;;;13.10;9.47;;;;;;;;;;5055587;28;20379;-58
2023/01/24 05:30:31;;;;;;;14.40;10.73;;;;;;;;;;5055143;28;20435;-57
2023/01/24 05:32:58;;;;;;;13.33;11.43;;;;;;;;;;5055999;28;20029;-58
2023/01/24 05:35:24;;;;;;;14.63;9.97;;;;;;;;;;5056375;28;20079;-57
2023/01/24 05:37:50;;;;;;;14.50;9.87;;;;;;;;;;5055813;28;20029;-58
2023/01/24 05:40:17;;;;;;;11.60;9.43;;;;;;;;;;5055875;28;20131;-58
2023/01/24 05:42:43;;;;;;;10.47;8.80;;;;;;;;;;5056262;28;20367;-58
2023/01/24 05:45:09;;;;;;;14.47;10.07;;;;;;;;;;5056302;28;20344;-58
2023/01/24 05:47:35;;;;;;;10.73;9.67;;;;;;;;;;5055689;28;20070;-55
2023/01/24 05:50:01;;;;;;;12.13;10.20;;;;;;;;;;5055531;28;20058;-58
2023/01/24 05:52:27;;;;;;;9.73;8.60;;;;;;;;;;5055846;28;20068;-58
2023/01/24 05:54:53;;;;;;;18.17;10.97;;;;;;;;;;5056184;28;20029;-57
2023/01/24 05:57:20;;;;;;;12.83;9.90;;;;;;;;;;5055965;28;20029;-58
2023/01/24 05:59:45;;;;;;;7.63;6.83;;;;;;;;;;5055374;28;20029;-58
2023/01/24 06:02:11;;;;;;;13.97;9.47;;;;;;;;;;5054877;28;20086;-57
2023/01/24 06:04:37;;;;;;;15.47;9.43;;;;;;;;;;5055575;28;20025;-57
2023/01/24 06:07:03;;;;;;;13.33;10.47;;;;;;;;;;5055472;28;20025;-58
2023/01/24 06:09:29;;;;;;;15.00;9.50;;;;;;;;;;5055296;28;20035;-57
2023/01/24 06:11:55;;;;;;;14.83;10.93;;;;;;;;;;5055198;28;20459;-58
2023/01/24 06:14:21;;;;;;;13.07;9.77;;;;;;;;;;5055485;28;20068;-58
2023/01/24 06:16:47;;;;;;;17.73;10.50;;;;;;;;;;5054830;28;20079;-58
2023/01/24 06:19:14;;;;;;;14.03;11.10;;;;;;;;;;5055377;28;20374;-57
2023/01/24 06:21:45;;;;;;;11.07;9.93;;;;;;;;;;5055085;28;20466;-58
2023/01/24 06:24:27;;;;;;;13.05;10.07;;;;;;;;;;5054989;28;20024;-58
2023/01/24 06:26:53;;;;;;;18.60;11.43;;;;;;;;;;5054862;28;20067;-58
2023/01/24 06:29:20;;;;;;;16.83;10.93;;;;;;;;;;5054797;28;20051;-57
2023/01/24 06:31:55;;;;;;;16.13;11.30;;;;;;;;;;5054819;28;20089;-57
2023/01/24 06:34:35;;;;;;;16.27;11.77;;;;;;;;;;5055359;28;20032;-55
2023/01/24 06:37:08;;;;;;;11.55;9.88;;;;;;;;;;5055137;28;20112;-56
2023/01/24 06:39:34;;;;;;;17.03;11.83;;;;;;;;;;5054393;28;20025;-58
2023/01/24 06:42:01;;;;;;;14.07;11.67;;;;;;;;;;5055124;28;20371;-57
2023/01/24 06:44:27;;;;;;;10.50;8.67;;;;;;;;;;5055169;28;20021;-58
2023/01/24 06:46:53;;;;;;;15.37;11.27;;;;;;;;;;5054465;28;20119;-58
2023/01/24 06:49:19;;;;;;;13.07;10.27;;;;;;;;;;5054354;28;20103;-58
2023/01/24 06:51:49;;;;;;;13.47;9.87;;;;;;;;;;5054220;28;20031;-57
2023/01/24 06:54:16;;;;;;;13.13;11.40;;;;;;;;;;5054966;28;20033;-58
2023/01/24 06:56:42;;;;;;;16.50;11.80;;;;;;;;;;5055096;28;20029;-57
2023/01/24 06:59:08;;;;;;;12.53;9.87;;;;;;;;;;5054842;28;20028;-58
2023/01/24 07:01:33;;;;;;;11.43;9.60;;;;;;;;;;5053837;28;20099;-57
2023/01/24 07:03:59;;;;;;;6.87;5.83;;;;;;;;;;5054849;28;20029;-58
2023/01/24 07:06:26;;;;;;;14.33;9.30;;;;;;;;;;5054506;28;20104;-58
2023/01/24 07:08:52;;;;;;;12.40;9.93;;;;;;;;;;5054081;28;20426;-58
2023/01/24 07:11:18;;;;;;;6.73;6.10;;;;;;;;;;5054036;28;20035;-58
2023/01/24 07:13:44;;;;;;;14.77;10.27;;;;;;;;;;5054264;28;20486;-58
2023/01/24 07:16:10;;;;;;;16.13;10.33;;;;;;;;;;5054086;28;20061;-57
2023/01/24 07:18:36;;;;;;;12.90;9.80;;;;;;;;;;5054593;28;20029;-58
2023/01/24 07:21:06;;;;;;;15.60;12.93;;;;;;;;;;5053187;28;20463;-58
2023/01/24 07:23:34;;;;;;;12.52;9.63;;;;;;;;;;5054395;28;20337;-58
2023/01/24 07:26:00;;;;;;;10.23;8.13;;;;;;;;;;5054717;28;20375;-57
2023/01/24 07:28:26;;;;;;;8.90;8.07;;;;;;;;;;5053926;28;20021;-57
2023/01/24 07:30:53;;;;;;;7.67;5.57;;;;;;;;;;5053431;28;20021;-58
2023/01/24 07:33:18;;;;;;;14.93;10.73;;;;;;;;;;5053954;28;20033;-56
2023/01/24 07:35:44;;;;;;;12.63;9.60;;;;;;;;;;5053770;28;20434;-56
2023/01/24 07:38:13;;;;;;;16.37;8.07;;;;;;;;;;5053747;28;20032;-57
2023/01/24 07:40:41;;;;;;;11.70;9.13;;;;;;;;;;5053993;28;20116;-57
2023/01/24 07:43:07;;;;;;;10.90;8.77;;;;;;;;;;5053883;28;20412;-59
2023/01/24 07:45:35;;;;;;;11.73;8.10;;;;;;;;;;5054503;28;20032;-57
2023/01/24 07:48:01;;;;;;;18.27;9.30;;;;;;;;;;5053619;28;20474;-58
2023/01/24 07:50:30;;;;;;;14.63;9.57;;;;;;;;;;5053508;28;20029;-58
2023/01/24 07:52:56;;;;;;;20.27;12.07;;;;;;;;;;5055831;28;20032;-58
2023/01/24 07:55:22;;;;;;;12.43;9.57;;;;;;;;;;5057958;28;20493;-59
2023/01/24 07:57:49;;;;;;;15.67;9.17;;;;;;;;;;5058582;28;20025;-56
2023/01/24 08:00:15;;;;;;;15.57;11.30;;;;;;;;;;5057409;28;20029;-57
2023/01/24 08:02:44;;;;;;;14.43;9.70;;;;;;;;;;5056996;28;20049;-56
2023/01/24 08:05:11;;;;;;;9.67;8.03;;;;;;;;;;5058245;28;20025;-58
2023/01/24 08:07:37;;;;;;;12.87;10.70;;;;;;;;;;5057863;28;20086;-59
2023/01/24 08:10:04;;;;;;;13.07;8.80;;;;;;;;;;5057230;28;20021;-58
2023/01/24 08:12:30;;;;;;;12.27;8.93;;;;;;;;;;5057634;28;20025;-58
2023/01/24 08:14:56;;;;;;;15.20;10.77;;;;;;;;;;5057386;28;20028;-58
2023/01/24 08:17:22;;;;;;;13.33;9.83;;;;;;;;;;5057633;28;20032;-58
2023/01/24 08:19:48;;;;;;;12.17;8.70;;;;;;;;;;5057282;28;20037;-59
2023/01/24 08:22:14;;;;;;;12.67;9.20;;;;;;;;;;5057319;28;20069;-58
2023/01/24 08:24:40;;;;;;;12.43;9.03;;;;;;;;;;5057907;28;20025;-58
2023/01/24 08:27:06;;;;;;;10.67;9.30;;;;;;;;;;5057175;28;20028;-57
2023/01/24 08:29:32;;;;;;;9.33;7.60;;;;;;;;;;5055898;28;20383;-58
2023/01/24 08:31:58;;;;;;;8.93;8.03;;;;;;;;;;5056936;28;20033;-58
2023/01/24 08:34:25;;;;;;;13.10;9.40;;;;;;;;;;5057306;28;20033;-57
2023/01/24 08:36:50;;;;;;;10.07;7.87;;;;;;;;;;5057332;28;20060;-58
2023/01/24 08:39:16;;;;;;;14.10;9.27;;;;;;;;;;5056982;28;20110;-58
2023/01/24 08:41:45;;;;;;;11.63;9.10;;;;;;;;;;5057191;28;20119;-58
2023/01/24 08:44:11;;;;;;;9.60;8.00;;;;;;;;;;5056743;28;20025;-58
2023/01/24 08:46:37;;;;;;;12.97;9.40;;;;;;;;;;5057100;28;20032;-58
2023/01/24 08:49:03;;;;;;;13.33;10.23;;;;;;;;;;5056736;28;20052;-58
2023/01/24 08:51:29;;;;;;;14.87;10.03;;;;;;;;;;5056627;28;20025;-58
2023/01/24 08:53:55;;;;;;;10.17;8.93;;;;;;;;;;5056899;28;20359;-58
2023/01/24 08:56:21;;;;;;;12.87;9.33;;;;;;;;;;5057250;28;20028;-58
2023/01/24 08:58:47;;;;;;;13.83;9.63;;;;;;;;;;5056384;28;20454;-59
2023/01/24 09:01:13;;;;;;;15.20;8.77;;;;;;;;;;5056644;28;20060;-59
2023/01/24 09:03:39;;;;;;;7.80;6.23;;;;;;;;;;5055737;28;20040;-58
2023/01/24 09:06:05;;;;;;;17.27;10.80;;;;;;;;;;5056508;28;20025;-58
2023/01/24 09:08:31;;;;;;;14.60;8.87;;;;;;;;;;5056302;28;20095;-57
2023/01/24 09:10:58;;;;;;;15.53;8.93;;;;;;;;;;5056156;28;20459;-57
2023/01/24 09:13:24;;;;;;;11.73;9.33;;;;;;;;;;5056337;28;20033;-58
2023/01/24 09:15:50;;;;;;;10.00;7.83;;;;;;;;;;5055221;28;20029;-58
2023/01/24 09:18:16;;;;;;;7.43;6.43;;;;;;;;;;5056812;28;20569;-58
2023/01/24 09:20:42;;;;;;;10.33;8.10;;;;;;;;;;5056418;28;20378;-59
2023/01/24 09:23:09;;;;;;;12.40;8.93;;;;;;;;;;5056681;28;20029;-58
2023/01/24 09:25:35;;;;;;;16.87;11.60;;;;;;;;;;5056405;28;20100;-58
2023/01/24 09:28:01;;;;;;;17.77;12.33;;;;;;;;;;5056050;28;20467;-58
2023/01/24 09:30:27;;;;;;;12.47;9.50;;;;;;;;;;5056290;28;20029;-58
2023/01/24 09:32:53;;;;;;;13.93;10.30;;;;;;;;;;5056089;28;20031;-58
2023/01/24 09:35:19;;;;;;;12.03;8.10;;;;;;;;;;5056789;28;20021;-57
2023/01/24 09:37:45;;;;;;;11.37;8.77;;;;;;;;;;5056429;28;20032;-58
2023/01/24 09:40:26;;;;;;;10.37;8.20;;;;;;;;;;5056032;28;20029;-58
2023/01/24 09:43:05;;;;;;;8.00;6.28;;;;;;;;;;5056143;28;20052;-58
2023/01/24 09:45:33;;;;;;;13.97;7.57;;;;;;;;;;5056328;28;20025;-57
2023/01/24 09:48:07;;;;;;;11.37;8.60;;;;;;;;;;5056096;28;20033;-59
2023/01/24 09:50:33;;;;;;;10.03;7.03;;;;;;;;;;5056156;28;20430;-57
2023/01/24 09:52:59;;;;;;;9.83;7.47;;;;;;;;;;5055595;28;20029;-58
2023/01/24 09:55:27;;;;;;;14.57;6.77;;;;;;;;;;5055618;28;20032;-59
2023/01/24 09:58:04;;;;;;;9.13;7.80;;;;;;;;;;5055506;28;20051;-58
2023/01/24 10:00:39;;;;;;;9.50;7.40;;;;;;;;;;5056023;28;20356;-58
2023/01/24 10:03:12;;;;;;;10.37;7.23;;;;;;;;;;5055298;28;20376;-58
2023/01/24 10:05:39;;;;;;;11.20;9.27;;;;;;;;;;5055502;28;20450;-58
2023/01/24 10:08:12;;;;;;;12.07;7.80;;;;;;;;;;5054658;28;20544;-58
2023/01/24 10:10:53;;;;;;;8.80;5.90;;;;;;;;;;5055772;28;20540;-60
2023/01/24 10:13:39;;;;;;;9.33;8.03;;;;;;;;;;5055529;28;20120;-56
2023/01/24 10:16:20;;;;;;;10.50;7.80;;;;;;;;;;5054690;28;20028;-58
2023/01/24 10:18:45;;;;;;;8.43;6.53;;;;;;;;;;5055350;28;20427;-59
2023/01/24 10:21:14;;;;;;;10.90;6.77;;;;;;;;;;5054509;28;20063;-58
2023/01/24 10:23:42;;;;;;;12.87;9.23;;;;;;;;;;5054965;28;20025;-58
2023/01/24 10:26:15;;;;;;;9.33;6.93;;;;;;;;;;5055044;28;20025;-58
2023/01/24 10:28:42;;;;;;;10.50;7.27;;;;;;;;;;5054206;28;20052;-58
2023/01/24 10:31:11;;;;;;;9.87;7.47;;;;;;;;;;5054823;28;20028;-58
2023/01/24 10:33:41;;;;;;;11.03;6.87;;;;;;;;;;5055532;28;20057;-58
2023/01/24 10:36:17;;;;;;;9.50;7.70;;;;;;;;;;5055078;28;20025;-58
2023/01/24 10:38:43;;;;;;;9.77;8.53;;;;;;;;;;5055026;28;20032;-58
2023/01/24 10:41:35;;;;;;;9.37;8.33;;;;;;;;;;5054668;28;20037;-58
2023/01/24 10:44:40;;;;;;;13.13;7.43;;;;;;;;;;5053304;28;20037;-58
2023/01/24 10:47:06;;;;;;;11.17;6.90;;;;;;;;;;5032494;28;20029;-58
2023/01/24 10:49:41;;;;;;;11.70;7.83;;;;;;;;;;5032547;28;20426;-58
2023/01/24 10:52:10;;;;;;;9.13;7.33;;;;;;;;;;5043804;28;20045;-58
2023/01/24 10:54:43;;;;;;;9.97;7.63;;;;;;;;;;5054698;28;20040;-58
2023/01/24 10:57:20;;;;;;;10.73;7.00;;;;;;;;;;5054347;28;20025;-56
2023/01/24 10:59:47;;;;;;;9.27;6.40;;;;;;;;;;5054269;28;20055;-58
2023/01/24 11:02:21;;;;;;;11.57;7.57;;;;;;;;;;5054279;28;20056;-58
2023/01/24 11:04:46;;;;;;;10.83;6.20;;;;;;;;;;5054245;28;20020;-58
2023/01/24 11:07:27;;;;;;;6.80;6.10;;;;;;;;;;5053974;28;20028;-58
2023/01/24 11:09:53;;;;;;;12.07;8.67;;;;;;;;;;5054542;28;20094;-58
2023/01/24 11:12:21;;;;;;;9.10;7.20;;;;;;;;;;5054583;28;20447;-55
2023/01/24 11:14:49;;;;;;;9.20;6.27;;;;;;;;;;5054180;28;20021;-58
2023/01/24 11:17:35;;;;;;;10.93;6.73;;;;;;;;;;5054021;28;20363;-58
2023/01/24 11:20:05;;;;;;;8.70;5.83;;;;;;;;;;5053041;28;20044;-59
2023/01/24 11:22:35;;;;;;;8.43;6.07;;;;;;;;;;5054800;28;20029;-59
2023/01/24 11:25:03;;;;;;;7.82;6.78;;;;;;;;;;5054804;28;20466;-58
2023/01/24 11:27:30;;;;;;;9.33;7.63;;;;;;;;;;5054246;28;20021;-59
2023/01/24 11:30:05;;;;;;;10.90;7.20;;;;;;;;;;5053673;28;20117;-59
2023/01/24 11:32:47;;;;;;;9.97;6.53;;;;;;;;;;5054278;28;20444;-57
2023/01/24 11:35:16;;;;;;;8.37;6.70;;;;;;;;;;5053819;28;20033;-58
2023/01/24 11:37:50;;;;;;;9.70;6.37;;;;;;;;;;5053517;28;20064;-57
2023/01/24 11:40:34;;;;;;;8.20;6.53;;;;;;;;;;5053502;28;20471;-59
2023/01/24 11:43:00;;;;;;;5.50;4.03;;;;;;;;;;5053756;28;20028;-58
2023/01/24 11:45:32;;;;;;;7.33;6.00;;;;;;;;;;5053505;28;20025;-57
2023/01/24 11:47:58;;;;;;;5.17;3.93;;;;;;;;;;5053933;28;20462;-56
2023/01/24 11:50:36;;;;;;;8.53;5.60;;;;;;;;;;5053604;28;20097;-56
2023/01/24 11:53:08;;;;;;;10.33;7.00;;;;;;;;;;5053587;28;20037;-56
2023/01/24 11:55:43;;;;;;;7.47;5.50;;;;;;;;;;5053722;28;20029;-58
2023/01/24 11:58:32;;;;;;;8.00;5.63;;;;;;;;;;5053711;28;20032;-57
2023/01/24 12:01:01;;;;;;;6.20;5.47;;;;;;;;;;5053576;28;20154;-58
2023/01/24 12:03:36;;;;;;;8.10;5.77;;;;;;;;;;5054122;28;20025;-57
2023/01/24 12:06:10;;;;;;;8.97;5.90;;;;;;;;;;5053895;28;20051;-58
2023/01/24 12:08:50;;;;;;;9.82;6.43;;;;;;;;;;5054165;28;20020;-57
2023/01/24 12:11:23;;;;;;;8.37;6.13;;;;;;;;;;5053377;28;20033;-58
2023/01/24 12:14:16;;;;;;;8.40;5.60;;;;;;;;;;5053719;28;20040;-58
2023/01/24 12:16:57;;;;;;;7.27;5.13;;;;;;;;;;5053728;28;20463;-58
2023/01/24 12:19:23;;;;;;;;;;;;;;;;;;5053751;28;20032;-58
2023/01/24 12:21:49;;;;;;;10.13;5.40;;;;;;;;;;5053353;28;19905;-58
2023/01/24 12:24:27;;;;;;;6.70;4.80;;;;;;;;;;5053374;28;20025;-57
2023/01/24 12:26:57;;;;;;;8.70;6.80;;;;;;;;;;5053363;28;20060;-58
2023/01/24 12:29:26;;;;;;;6.90;6.20;;;;;;;;;;5053199;28;20021;-58
2023/01/24 12:31:52;;;;;;;9.73;5.93;;;;;;;;;;5053160;28;20040;-58
2023/01/24 12:34:36;;;;;;;4.77;4.37;;;;;;;;;;5053717;28;20514;-58
2023/01/24 12:37:21;;;;;;;9.33;6.50;;;;;;;;;;5052878;28;20383;-57
2023/01/24 12:40:08;;;;;;;7.13;6.00;;;;;;;;;;5056600;28;20485;-56
2023/01/24 12:42:43;;;;;;;8.40;5.27;;;;;;;;;;5056797;28;20463;-56
2023/01/24 12:45:24;;;;;;;7.33;5.90;;;;;;;;;;5056900;28;20024;-58
2023/01/24 12:47:56;;;;;;;6.03;5.43;;;;;;;;;;5057103;28;20155;-57
2023/01/24 12:50:34;;;;;;;11.00;7.20;;;;;;;;;;5056934;28;20037;-58
2023/01/24 12:53:09;;;;;;;10.30;6.87;;;;;;;;;;5057275;28;20029;-57
2023/01/24 12:55:38;;;;;;;9.57;7.27;;;;;;;;;;5057081;28;20438;-56
2023/01/24 12:58:16;;;;;;;12.67;7.43;;;;;;;;;;5056814;28;20107;-58
2023/01/24 13:00:42;;;;;;;8.55;5.97;;;;;;;;;;5055494;28;20028;-58
2023/01/24 13:03:14;;;;;;;9.73;8.47;;;;;;;;;;5056330;28;20542;-58
2023/01/24 13:05:46;;;;;;;10.60;8.17;;;;;;;;;;5056540;28;20415;-58
2023/01/24 13:08:12;;;;;;;12.47;7.07;;;;;;;;;;5056532;28;20117;-58
2023/01/24 13:10:47;;;;;;;11.87;8.03;;;;;;;;;;5056490;28;20135;-58
2023/01/24 13:13:22;;;;;;;8.33;6.53;;;;;;;;;;5056696;28;20036;-57
2023/01/24 13:15:55;;;;;;;9.37;7.43;;;;;;;;;;5056424;28;20036;-58
2023/01/24 13:18:27;;;;;;;10.30;6.90;;;;;;;;;;5056738;28;20051;-53
2023/01/24 13:21:02;;;;;;;7.70;5.97;;;;;;;;;;5054572;28;20166;-57
2023/01/24 13:23:29;;;;;;;9.37;7.40;;;;;;;;;;5056399;28;20444;-58
2023/01/24 13:26:04;;;;;;;8.10;6.87;;;;;;;;;;5056529;28;20446;-58
2023/01/24 13:28:39;;;;;;;10.97;7.40;;;;;;;;;;5055983;28;20112;-56
2023/01/24 13:31:24;;;;;;;7.47;6.10;;;;;;;;;;5055984;28;20035;-58
2023/01/24 13:33:55;;;;;;;10.27;7.10;;;;;;;;;;5055946;28;20025;-58
2023/01/24 13:36:22;;;;;;;8.30;6.88;;;;;;;;;;5056507;28;20021;-57
2023/01/24 13:38:48;;;;;;;7.13;4.23;;;;;;;;;;5056317;28;20114;-58
2023/01/24 13:41:17;;;;;;;10.83;6.87;;;;;;;;;;5055537;28;20029;-58
2023/01/24 13:43:57;;;;;;;7.07;4.27;;;;;;;;;;5056511;28;20029;-56
2023/01/24 13:46:43;;;;;;;11.05;7.18;;;;;;;;;;5056087;28;20466;-58
2023/01/24 13:49:19;;;;;;;8.83;7.47;;;;;;;;;;5055189;28;20029;-58
2023/01/24 13:51:49;;;;;;;9.90;6.37;;;;;;;;;;5055056;28;20028;-55
2023/01/24 13:54:18;;;;;;;8.80;7.30;;;;;;;;;;5055513;28;20028;-56
2023/01/24 13:57:03;;;;;;;9.70;7.30;;;;;;;;;;5055439;28;20029;-58
2023/01/24 13:59:29;;;;;;;9.37;6.53;;;;;;;;;;5055893;28;20029;-56
2023/01/24 14:01:55;;;;;;;9.50;7.20;;;;;;;;;;5055156;28;20121;-55
2023/01/24 14:04:36;;;;;;;8.43;7.43;;;;;;;;;;5053995;28;20359;-58
2023/01/24 14:07:17;;;;;;;7.37;6.40;;;;;;;;;;5055274;28;20033;-58
2023/01/24 14:09:42;;;;;;;;;;;;;;;;;;5056076;28;20037;-57
2023/01/24 14:12:14;;;;;;;9.23;6.83;;;;;;;;;;5055167;28;19963;-58
2023/01/24 14:15:13;;;;;;;7.87;6.20;;;;;;;;;;5055805;28;20128;-58
2023/01/24 14:17:39;;;;;;;4.40;4.00;;;;;;;;;;5042831;28;20380;-56
2023/01/24 14:20:05;;;;;;;8.17;7.00;;;;;;;;;;5054874;28;20025;-58
2023/01/24 14:22:35;;;;;;;8.00;6.93;;;;;;;;;;5055059;28;20029;-58
2023/01/24 14:25:18;;;;;;;5.37;4.87;;;;;;;;;;5055611;28;20474;-58
2023/01/24 14:28:13;;;;;;;6.00;4.67;;;;;;;;;;5054993;28;20557;-58
2023/01/24 14:30:44;;;;;;;6.13;4.67;;;;;;;;;;5055652;28;20068;-58
2023/01/24 14:33:20;;;;;;;8.65;6.60;;;;;;;;;;5055199;28;20037;-58
2023/01/24 14:36:06;;;;;;;7.03;5.93;;;;;;;;;;5054818;28;20037;-58
2023/01/24 14:38:32;;;;;;;12.43;7.53;;;;;;;;;;5055162;28;20115;-57
2023/01/24 14:40:58;;;;;;;8.13;6.93;;;;;;;;;;5054818;28;20533;-58
2023/01/24 14:43:28;;;;;;;8.30;7.47;;;;;;;;;;5055025;28;20021;-58
2023/01/24 14:45:55;;;;;;;7.80;7.00;;;;;;;;;;5054592;28;20029;-58
2023/01/24 14:48:24;;;;;;;11.73;8.03;;;;;;;;;;5054930;28;20359;-58
2023/01/24 14:50:57;;;;;;;8.80;6.83;;;;;;;;;;5054545;28;20036;-57
2023/01/24 14:53:28;;;;;;;10.37;7.90;;;;;;;;;;5053883;28;20490;-58
2023/01/24 14:55:56;;;;;;;12.53;9.23;;;;;;;;;;5054312;28;20025;-58
2023/01/24 14:58:26;;;;;;;9.73;7.93;;;;;;;;;;5054613;28;20462;-57
2023/01/24 15:00:54;;;;;;;9.63;6.93;;;;;;;;;;5054347;28;20025;-58
2023/01/24 15:03:22;;;;;;;13.87;7.77;;;;;;;;;;5054262;28;20088;-56
2023/01/24 15:05:50;;;;;;;8.33;6.13;;;;;;;;;;5053673;28;20025;-57
2023/01/24 15:08:16;;;;;;;20.67;9.03;;;;;;;;;;5054088;28;20106;-61
2023/01/24 15:10:43;;;;;;;8.17;7.37;;;;;;;;;;5054464;28;20029;-58
2023/01/24 15:13:11;;;;;;;8.07;6.20;;;;;;;;;;5054221;28;20029;-58
2023/01/24 15:15:37;;;;;;;13.27;7.43;;;;;;;;;;5054652;28;20040;-58
2023/01/24 15:18:05;;;;;;;12.23;8.10;;;;;;;;;;5054260;28;20025;-57
2023/01/24 15:20:31;;;;;;;8.97;7.57;;;;;;;;;;5053873;28;20442;-58